Time;durP1;ratioP1;P1;durP2;ratioP2;P2;SDS_P1;SDS_P2;PMS_P1;PMS_P2;Temp;Humidity;BMP_temperature;BMP_pressure;BME280_temperature;BME280_humidity;BME280_pressure;Samples;Min_cycle;Max_cycle;Signal;HPM_P1;HPM_P2
2023/08/14 00:02:24;;;;;;;2.65;1.90;;;16.60;99.90;;;;;;4864050;29;20540;-51
2023/08/14 00:04:49;;;;;;;2.47;2.03;;;16.80;99.90;;;;;;4863656;29;20679;-49
2023/08/14 00:07:15;;;;;;;5.68;2.50;;;16.70;99.90;;;;;;4864024;29;20242;-50
2023/08/14 00:09:41;;;;;;;3.85;2.00;;;16.80;99.90;;;;;;4863938;29;20182;-49
2023/08/14 00:12:06;;;;;;;6.00;2.38;;;16.70;99.90;;;;;;4864094;29;20237;-50
2023/08/14 00:14:32;;;;;;;4.15;1.88;;;16.70;99.90;;;;;;4863845;29;20191;-52
2023/08/14 00:16:58;;;;;;;3.05;1.98;;;16.80;99.90;;;;;;4863748;29;20182;-52
2023/08/14 00:19:24;;;;;;;2.97;1.98;;;16.70;99.90;;;;;;4863657;29;20208;-50
2023/08/14 00:21:50;;;;;;;2.65;1.90;;;16.80;99.90;;;;;;4863830;29;20214;-50
2023/08/14 00:24:16;;;;;;;2.00;1.80;;;16.80;99.90;;;;;;4863652;29;20206;-47
2023/08/14 00:26:41;;;;;;;3.05;2.15;;;16.80;99.90;;;;;;4863539;29;20299;-52
2023/08/14 00:29:07;;;;;;;3.47;1.90;;;16.70;99.90;;;;;;4863514;29;20194;-52
2023/08/14 00:31:33;;;;;;;2.58;1.90;;;16.70;99.90;;;;;;4863020;29;20179;-52
2023/08/14 00:33:58;;;;;;;3.60;1.80;;;16.70;99.90;;;;;;4863376;29;20521;-51
2023/08/14 00:36:24;;;;;;;3.10;2.10;;;16.70;99.90;;;;;;4863299;29;20252;-50
2023/08/14 00:38:50;;;;;;;2.80;1.95;;;16.60;99.90;;;;;;4863459;29;20180;-52
2023/08/14 00:41:16;;;;;;;2.28;1.75;;;16.50;99.90;;;;;;4863734;29;20186;-49
2023/08/14 00:43:41;;;;;;;2.60;1.90;;;16.50;99.90;;;;;;4863099;29;20571;-51
2023/08/14 00:46:08;;;;;;;4.78;1.98;;;16.50;99.90;;;;;;4846746;29;20242;-55
2023/08/14 00:48:34;;;;;;;2.78;1.90;;;16.50;99.90;;;;;;4863040;29;20588;-51
2023/08/14 00:51:00;;;;;;;2.20;2.00;;;16.50;99.90;;;;;;4863329;29;20636;-52
2023/08/14 00:53:29;;;;;;;6.40;2.10;;;16.50;99.90;;;;;;4863311;29;20178;-49
2023/08/14 00:55:55;;;;;;;2.60;1.88;;;16.50;99.90;;;;;;4863148;29;20173;-50
2023/08/14 00:58:22;;;;;;;5.30;2.15;;;16.50;99.90;;;;;;4863092;29;20178;-50
2023/08/14 01:00:48;;;;;;;4.60;2.40;;;16.60;99.90;;;;;;4862906;29;20538;-51
2023/08/14 01:03:15;;;;;;;3.72;2.00;;;16.50;99.90;;;;;;4862865;29;20182;-51
2023/08/14 01:05:41;;;;;;;2.90;2.10;;;16.50;99.90;;;;;;4862833;29;20710;-50
2023/08/14 01:08:06;;;;;;;2.35;1.92;;;16.40;99.90;;;;;;4862973;29;20190;-51
2023/08/14 01:10:52;;;;;;;5.55;1.85;;;16.40;99.90;;;;;;4862816;29;20181;-50
2023/08/14 01:13:41;;;;;;;5.20;2.17;;;16.50;99.90;;;;;;4862721;29;20178;-52
2023/08/14 01:16:13;;;;;;;3.13;1.85;;;16.40;99.90;;;;;;4862917;29;20186;-51
2023/08/14 01:18:40;;;;;;;3.85;1.85;;;16.40;99.90;;;;;;4862743;29;20209;-53
2023/08/14 01:21:11;;;;;;;2.00;1.80;;;16.40;99.90;;;;;;4862690;29;20265;-51
2023/08/14 01:23:55;;;;;;;3.47;1.80;;;16.40;99.90;;;;;;4862435;29;20331;-52
2023/08/14 01:26:21;;;;;;;4.15;1.80;;;16.40;99.90;;;;;;4862591;29;20225;-49
2023/08/14 01:28:47;;;;;;;1.70;1.35;;;16.40;99.90;;;;;;4862633;29;20269;-52
2023/08/14 01:31:13;;;;;;;2.67;1.75;;;16.30;99.90;;;;;;4862386;29;20265;-52
2023/08/14 01:33:38;;;;;;;3.72;1.58;;;16.40;99.90;;;;;;4862356;29;20257;-51
2023/08/14 01:36:37;;;;;;;3.88;2.00;;;16.40;99.90;;;;;;4862111;29;20294;-52
2023/08/14 01:39:07;;;;;;;3.70;2.10;;;16.30;99.90;;;;;;4862422;29;20185;-51
2023/08/14 01:41:37;;;;;;;3.95;2.08;;;16.30;99.90;;;;;;4862404;29;20372;-52
2023/08/14 01:44:07;;;;;;;3.33;2.13;;;16.30;99.90;;;;;;4861459;29;20301;-53
2023/08/14 01:46:34;;;;;;;3.38;2.30;;;16.30;99.90;;;;;;4862266;29;20189;-49
2023/08/14 01:49:02;;;;;;;3.03;2.25;;;16.30;99.90;;;;;;4862016;29;20190;-52
2023/08/14 01:51:29;;;;;;;3.55;2.20;;;16.30;99.90;;;;;;4862244;29;20178;-51
2023/08/14 01:53:55;;;;;;;2.13;1.90;;;16.30;99.90;;;;;;4862143;29;20186;-50
2023/08/14 01:56:20;;;;;;;4.20;2.22;;;16.30;99.90;;;;;;4861938;29;20178;-52
2023/08/14 01:58:46;;;;;;;2.83;2.03;;;16.20;99.90;;;;;;4861857;29;20174;-52
2023/08/14 02:01:11;;;;;;;2.55;2.10;;;16.20;99.90;;;;;;4861856;29;20182;-51
2023/08/14 02:03:37;;;;;;;3.60;2.10;;;16.20;99.90;;;;;;4861648;29;20547;-51
2023/08/14 02:06:03;;;;;;;4.20;2.08;;;16.20;99.90;;;;;;4861821;29;20533;-52
2023/08/14 02:08:28;;;;;;;4.97;2.20;;;16.30;99.90;;;;;;4861927;29;20716;-50
2023/08/14 02:10:54;;;;;;;2.80;2.20;;;16.20;99.90;;;;;;4861744;29;20577;-50
2023/08/14 02:13:20;;;;;;;4.57;2.08;;;16.20;99.90;;;;;;4861729;29;20540;-51
2023/08/14 02:15:46;;;;;;;2.70;2.10;;;16.20;99.90;;;;;;4861623;29;20204;-52
2023/08/14 02:18:13;;;;;;;2.25;2.05;;;16.20;99.90;;;;;;4861510;29;20674;-51
2023/08/14 02:20:49;;;;;;;3.15;2.17;;;16.20;99.90;;;;;;4861758;29;20189;-51
2023/08/14 02:23:15;;;;;;;3.70;2.42;;;16.20;99.90;;;;;;4845044;29;20276;-48
2023/08/14 02:25:41;;;;;;;4.15;2.80;;;16.00;99.90;;;;;;4861346;29;20754;-50
2023/08/14 02:28:08;;;;;;;3.63;2.45;;;16.00;99.90;;;;;;4861467;29;20192;-49
2023/08/14 02:30:41;;;;;;;3.83;2.42;;;16.00;99.90;;;;;;4861527;29;20179;-52
2023/08/14 02:33:07;;;;;;;4.85;2.40;;;16.10;99.90;;;;;;4861619;29;20213;-52
2023/08/14 02:35:34;;;;;;;2.97;2.25;;;16.10;99.90;;;;;;4861126;29;20644;-50
2023/08/14 02:38:01;;;;;;;3.83;2.55;;;16.10;99.90;;;;;;4861515;29;20656;-51
2023/08/14 02:40:27;;;;;;;3.03;2.35;;;16.10;99.90;;;;;;4861229;29;20281;-51
2023/08/14 02:42:59;;;;;;;3.13;2.50;;;16.10;99.90;;;;;;4861243;29;20273;-51
2023/08/14 02:45:24;;;;;;;2.83;2.35;;;16.00;99.90;;;;;;4861109;29;20297;-51
2023/08/14 02:47:50;;;;;;;3.80;2.60;;;16.00;99.90;;;;;;4861474;29;20618;-51
2023/08/14 02:50:16;;;;;;;3.38;2.30;;;15.90;99.90;;;;;;4861287;29;20261;-52
2023/08/14 02:52:41;;;;;;;3.10;2.55;;;15.80;99.90;;;;;;4861194;29;20188;-51
2023/08/14 02:55:07;;;;;;;4.90;2.70;;;15.80;99.90;;;;;;4861050;29;20277;-51
2023/08/14 02:57:33;;;;;;;2.83;2.33;;;15.80;99.90;;;;;;4861192;29;20178;-49
2023/08/14 02:59:58;;;;;;;3.92;2.70;;;15.80;99.90;;;;;;4860909;29;20222;-54
2023/08/14 03:02:24;;;;;;;3.97;2.63;;;15.80;99.90;;;;;;4861218;29;20205;-51
2023/08/14 03:04:50;;;;;;;4.47;3.13;;;15.80;99.90;;;;;;4861171;29;20205;-50
2023/08/14 03:07:16;;;;;;;3.95;2.90;;;15.80;99.90;;;;;;4860863;29;20221;-49
2023/08/14 03:09:41;;;;;;;4.10;3.03;;;15.90;99.90;;;;;;4860990;29;20705;-50
2023/08/14 03:12:07;;;;;;;3.67;2.70;;;15.90;99.90;;;;;;4861201;29;20186;-52
2023/08/14 03:14:33;;;;;;;4.53;2.70;;;15.90;99.90;;;;;;4844160;29;20194;-50
2023/08/14 03:16:58;;;;;;;5.60;2.90;;;15.90;99.90;;;;;;4861106;29;20200;-53
2023/08/14 03:19:24;;;;;;;3.03;2.70;;;15.70;99.90;;;;;;4861036;29;20190;-52
2023/08/14 03:21:52;;;;;;;5.72;3.10;;;15.80;99.90;;;;;;4860965;29;20189;-49
2023/08/14 03:24:17;;;;;;;3.78;2.80;;;15.90;99.90;;;;;;4860620;29;20529;-54
2023/08/14 03:26:43;;;;;;;3.80;2.88;;;15.80;99.90;;;;;;4860839;29;20174;-51
2023/08/14 03:29:09;;;;;;;5.22;2.83;;;15.80;99.90;;;;;;4860998;29;20178;-51
2023/08/14 03:31:34;;;;;;;4.93;2.75;;;15.80;99.90;;;;;;4861080;29;20720;-49
2023/08/14 03:34:00;;;;;;;4.55;2.95;;;15.80;99.90;;;;;;4860824;29;20178;-52
2023/08/14 03:36:26;;;;;;;5.05;3.05;;;15.80;99.90;;;;;;4844125;29;20325;-51
2023/08/14 03:38:51;;;;;;;4.03;2.70;;;15.80;99.90;;;;;;4860725;29;20193;-50
2023/08/14 03:41:19;;;;;;;5.10;2.90;;;15.90;99.90;;;;;;4860947;29;20240;-50
2023/08/14 03:43:45;;;;;;;4.63;2.70;;;15.80;99.90;;;;;;4860473;29;20517;-50
2023/08/14 03:46:10;;;;;;;4.20;2.88;;;15.80;99.90;;;;;;4860810;29;20189;-51
2023/08/14 03:48:36;;;;;;;3.90;3.22;;;15.90;99.90;;;;;;4860552;29;20178;-52
2023/08/14 03:51:02;;;;;;;4.75;2.90;;;15.90;99.90;;;;;;4860689;29;20544;-52
2023/08/14 03:53:28;;;;;;;5.82;3.15;;;15.80;99.90;;;;;;4860742;29;20210;-51
2023/08/14 03:55:53;;;;;;;4.78;3.10;;;15.80;99.90;;;;;;4860479;29;20182;-51
2023/08/14 03:58:19;;;;;;;5.20;3.30;;;15.80;99.90;;;;;;4860463;29;20230;-47
2023/08/14 04:00:46;;;;;;;4.90;3.33;;;15.80;99.90;;;;;;4860744;29;20266;-51
2023/08/14 04:03:13;;;;;;;3.90;3.45;;;15.90;99.90;;;;;;4860591;29;20174;-52
2023/08/14 04:05:40;;;;;;;5.55;3.10;;;15.90;99.90;;;;;;4860582;29;20209;-50
2023/08/14 04:08:09;;;;;;;4.07;3.50;;;15.90;99.90;;;;;;4847216;29;20254;-53
2023/08/14 04:10:35;;;;;;;4.80;3.22;;;15.90;99.90;;;;;;4863887;29;20544;-53
2023/08/14 04:13:00;;;;;;;4.68;3.45;;;16.00;99.90;;;;;;4863758;29;20178;-50
2023/08/14 04:15:26;;;;;;;3.22;2.92;;;16.00;99.90;;;;;;4863864;29;20198;-53
2023/08/14 04:17:52;;;;;;;4.07;3.20;;;16.00;99.90;;;;;;4863893;29;20178;-54
2023/08/14 04:20:18;;;;;;;5.30;3.15;;;16.00;99.90;;;;;;4863693;29;20189;-50
2023/08/14 04:22:43;;;;;;;5.20;3.13;;;16.00;99.90;;;;;;4863719;29;20262;-53
2023/08/14 04:25:09;;;;;;;4.07;2.88;;;16.00;99.90;;;;;;4863526;29;20209;-50
2023/08/14 04:27:38;;;;;;;3.72;3.25;;;16.00;99.90;;;;;;4863593;29;20277;-52
2023/08/14 04:30:05;;;;;;;5.78;3.08;;;16.00;99.90;;;;;;4863968;29;20657;-52
2023/08/14 04:32:32;;;;;;;3.05;2.75;;;16.00;99.90;;;;;;4863614;29;20166;-50
2023/08/14 04:34:58;;;;;;;3.70;2.70;;;15.90;99.90;;;;;;4863559;29;20201;-52
2023/08/14 04:37:23;;;;;;;4.88;2.83;;;16.00;99.90;;;;;;4863524;29;20225;-49
2023/08/14 04:39:49;;;;;;;5.55;2.60;;;16.00;99.90;;;;;;4846946;29;20178;-51
2023/08/14 04:42:15;;;;;;;3.72;2.83;;;16.00;99.90;;;;;;4863305;29;20222;-48
2023/08/14 04:44:40;;;;;;;4.60;2.80;;;16.00;99.90;;;;;;4863188;29;20553;-51
2023/08/14 04:47:06;;;;;;;4.18;2.72;;;16.10;99.90;;;;;;4863409;29;20205;-51
2023/08/14 04:49:32;;;;;;;6.00;2.88;;;16.10;99.90;;;;;;4863311;29;20185;-51
2023/08/14 04:51:58;;;;;;;5.35;2.67;;;16.10;99.90;;;;;;4863298;29;20189;-52
2023/08/14 04:54:26;;;;;;;4.72;2.50;;;16.20;99.90;;;;;;4863051;29;20277;-52
2023/08/14 04:56:52;;;;;;;3.47;2.58;;;16.10;99.90;;;;;;4863006;29;20196;-52
2023/08/14 04:59:17;;;;;;;3.47;2.50;;;16.10;99.90;;;;;;4863447;29;20270;-53
2023/08/14 05:01:43;;;;;;;3.42;2.47;;;16.20;99.90;;;;;;4863330;29;20182;-51
2023/08/14 05:04:08;;;;;;;4.43;2.75;;;16.20;99.90;;;;;;4863095;29;20213;-51
2023/08/14 05:06:34;;;;;;;4.28;2.45;;;16.20;99.90;;;;;;4863058;29;20186;-52
2023/08/14 05:09:00;;;;;;;5.22;2.53;;;16.30;99.90;;;;;;4863098;29;20197;-52
2023/08/14 05:11:25;;;;;;;4.70;2.88;;;16.30;99.90;;;;;;4862843;29;20650;-51
2023/08/14 05:13:51;;;;;;;3.67;2.45;;;16.30;99.90;;;;;;4863102;29;20261;-51
2023/08/14 05:16:17;;;;;;;4.00;2.30;;;16.30;99.90;;;;;;4862916;29;20196;-50
2023/08/14 05:18:42;;;;;;;3.95;2.30;;;16.30;99.90;;;;;;4862804;29;20178;-49
2023/08/14 05:21:08;;;;;;;3.60;2.45;;;16.30;99.90;;;;;;4862539;29;20194;-49
2023/08/14 05:23:33;;;;;;;6.65;2.53;;;16.30;99.90;;;;;;4862523;29;20174;-51
2023/08/14 05:25:59;;;;;;;5.85;2.50;;;16.20;99.90;;;;;;4862951;29;20294;-51
2023/08/14 05:28:25;;;;;;;3.10;2.42;;;16.30;99.90;;;;;;4862758;29;20786;-52
2023/08/14 05:30:50;;;;;;;3.05;2.60;;;16.30;99.90;;;;;;4862654;29;20522;-51
2023/08/14 05:33:16;;;;;;;3.60;2.35;;;16.30;99.90;;;;;;4862569;29;20186;-52
2023/08/14 05:35:42;;;;;;;4.70;2.83;;;16.40;99.90;;;;;;4862199;29;20249;-53
2023/08/14 05:38:07;;;;;;;3.53;2.40;;;16.50;99.90;;;;;;4862547;29;20544;-51
2023/08/14 05:40:33;;;;;;;3.72;2.30;;;16.50;99.90;;;;;;4862327;29;20201;-49
2023/08/14 05:43:03;;;;;;;6.13;2.88;;;16.60;99.90;;;;;;4862438;29;20189;-51
2023/08/14 05:45:30;;;;;;;3.63;2.47;;;16.60;99.90;;;;;;4862140;29;20755;-51
2023/08/14 05:47:55;;;;;;;4.95;2.75;;;16.70;99.90;;;;;;4862373;29;20182;-52
2023/08/14 05:50:21;;;;;;;3.13;2.33;;;16.70;99.90;;;;;;4862165;29;20178;-51
2023/08/14 05:52:47;;;;;;;5.82;2.80;;;16.80;99.90;;;;;;4862164;29;20186;-50
2023/08/14 05:55:13;;;;;;;3.38;2.70;;;16.90;99.90;;;;;;4862205;29;20186;-51
2023/08/14 05:57:39;;;;;;;6.25;2.90;;;16.90;99.90;;;;;;4862281;29;20193;-52
2023/08/14 06:00:05;;;;;;;3.90;2.67;;;16.90;99.90;;;;;;4845493;29;20182;-51
2023/08/14 06:02:31;;;;;;;5.90;2.90;;;17.00;99.90;;;;;;4861930;29;20536;-51
2023/08/14 06:04:57;;;;;;;4.20;2.70;;;16.90;99.90;;;;;;4861811;29;20334;-51
2023/08/14 06:07:22;;;;;;;6.18;2.90;;;17.00;99.90;;;;;;4861833;29;20302;-50
2023/08/14 06:09:48;;;;;;;4.85;2.85;;;17.10;99.90;;;;;;4861676;29;20192;-51
2023/08/14 06:12:13;;;;;;;2.80;2.58;;;17.10;99.90;;;;;;4861928;29;20186;-52
2023/08/14 06:14:39;;;;;;;4.82;3.28;;;17.20;99.90;;;;;;4861899;29;20193;-48
2023/08/14 06:17:05;;;;;;;4.25;3.45;;;17.30;99.90;;;;;;4845396;29;20197;-51
2023/08/14 06:19:31;;;;;;;4.93;2.70;;;17.20;99.90;;;;;;4861718;29;20265;-51
2023/08/14 06:21:57;;;;;;;4.25;2.85;;;17.30;99.90;;;;;;4861655;29;20179;-47
2023/08/14 06:24:23;;;;;;;2.90;2.65;;;17.30;99.90;;;;;;4861462;29;20217;-50
2023/08/14 06:26:49;;;;;;;5.18;2.50;;;17.20;99.90;;;;;;4861382;29;20724;-50
2023/08/14 06:29:15;;;;;;;3.38;2.85;;;17.20;99.90;;;;;;4861294;29;20182;-52
2023/08/14 06:31:40;;;;;;;6.20;2.90;;;17.30;99.90;;;;;;4861627;29;20186;-51
2023/08/14 06:34:06;;;;;;;5.40;3.38;;;17.30;99.90;;;;;;4861615;29;20616;-51
2023/08/14 06:36:32;;;;;;;5.07;2.83;;;17.30;99.90;;;;;;4861610;29;20237;-50
2023/08/14 06:38:57;;;;;;;3.92;2.97;;;17.40;99.90;;;;;;4861428;29;20192;-50
2023/08/14 06:41:23;;;;;;;7.05;3.40;;;17.40;99.90;;;;;;4861622;29;20186;-51
2023/08/14 06:43:48;;;;;;;5.13;3.17;;;17.50;99.90;;;;;;4861494;29;20183;-50
2023/08/14 06:46:14;;;;;;;7.50;3.58;;;17.60;99.90;;;;;;4861631;29;20206;-50
2023/08/14 06:48:40;;;;;;;5.47;3.10;;;17.80;99.90;;;;;;4861448;29;20182;-52
2023/08/14 06:51:05;;;;;;;4.95;3.20;;;18.00;99.90;;;;;;4861221;29;20640;-54
2023/08/14 06:53:31;;;;;;;5.18;3.30;;;18.30;99.90;;;;;;4861046;29;20182;-49
2023/08/14 06:55:57;;;;;;;4.28;3.17;;;18.50;99.90;;;;;;4861372;29;20182;-51
2023/08/14 06:58:23;;;;;;;5.07;2.85;;;18.70;99.90;;;;;;4861164;29;20182;-48
2023/08/14 07:00:49;;;;;;;7.13;3.38;;;18.90;99.90;;;;;;4844583;29;20207;-51
2023/08/14 07:03:14;;;;;;;4.38;2.97;;;19.10;99.90;;;;;;4859971;29;20671;-50
2023/08/14 07:05:40;;;;;;;7.05;3.42;;;19.30;99.90;;;;;;4844276;29;20237;-48
2023/08/14 07:08:06;;;;;;;5.25;2.78;;;19.30;99.90;;;;;;4860648;29;20196;-52
2023/08/14 07:10:39;;;;;;;3.70;2.75;;;19.30;99.90;;;;;;4860698;29;20274;-52
2023/08/14 07:13:06;;;;;;;5.10;2.50;;;19.50;99.90;;;;;;4860692;29;20189;-52
2023/08/14 07:15:32;;;;;;;5.93;3.03;;;19.60;99.90;;;;;;4860673;29;20273;-51
2023/08/14 07:17:58;;;;;;;5.60;2.85;;;19.60;99.90;;;;;;4860606;29;20182;-53
2023/08/14 07:20:30;;;;;;;3.72;2.45;;;19.50;99.90;;;;;;4860471;29;20193;-54
2023/08/14 07:22:56;;;;;;;5.93;2.80;;;19.50;99.90;;;;;;4859422;29;20278;-51
2023/08/14 07:25:21;;;;;;;3.65;2.25;;;19.50;99.90;;;;;;4860163;29;20248;-49
2023/08/14 07:27:47;;;;;;;3.95;2.70;;;19.50;99.90;;;;;;4860233;29;20615;-54
2023/08/14 07:30:14;;;;;;;5.20;2.95;;;19.50;99.90;;;;;;4860633;29;20683;-48
2023/08/14 07:32:39;;;;;;;5.45;2.80;;;19.70;99.90;;;;;;4860835;29;20205;-53
2023/08/14 07:35:06;;;;;;;4.20;2.63;;;19.80;99.90;;;;;;4860771;29;20217;-52
2023/08/14 07:37:31;;;;;;;7.57;2.85;;;20.20;99.90;;;;;;4843827;29;20687;-50
2023/08/14 07:39:57;;;;;;;7.28;2.85;;;20.20;99.90;;;;;;4860763;29;20282;-51
2023/08/14 07:42:23;;;;;;;3.85;2.45;;;20.50;99.90;;;;;;4863196;29;20188;-52
2023/08/14 07:44:48;;;;;;;6.40;2.47;;;20.60;99.90;;;;;;4864277;29;20702;-50
2023/08/14 07:47:14;;;;;;;5.80;2.50;;;20.60;99.90;;;;;;4864436;29;20189;-53
2023/08/14 07:49:39;;;;;;;4.18;2.30;;;20.80;99.90;;;;;;4864246;29;20182;-51
2023/08/14 07:52:06;;;;;;;6.05;2.38;;;20.90;99.90;;;;;;4864142;29;20208;-50
2023/08/14 07:54:31;;;;;;;4.13;2.30;;;21.10;99.90;;;;;;4864396;29;20201;-51
2023/08/14 07:56:57;;;;;;;4.15;2.50;;;21.20;99.90;;;;;;4864327;29;20217;-52
2023/08/14 07:59:23;;;;;;;6.10;2.50;;;21.40;99.90;;;;;;4864077;29;20181;-51
2023/08/14 08:01:49;;;;;;;6.65;2.70;;;21.40;99.90;;;;;;4864076;29;20178;-53
2023/08/14 08:04:14;;;;;;;5.00;2.33;;;21.60;99.90;;;;;;4847491;29;20246;-52
2023/08/14 08:06:40;;;;;;;4.80;2.53;;;21.70;99.90;;;;;;4863920;29;20183;-52
2023/08/14 08:09:07;;;;;;;4.97;2.10;;;21.90;99.90;;;;;;4864096;29;20521;-51
2023/08/14 08:11:33;;;;;;;4.75;2.10;;;22.00;99.90;;;;;;4863931;29;20182;-51
2023/08/14 08:14:05;;;;;;;6.03;2.25;;;22.10;99.90;;;;;;4864022;29;20178;-51
2023/08/14 08:16:34;;;;;;;4.22;1.85;;;22.10;99.90;;;;;;4863835;29;20188;-52
2023/08/14 08:19:04;;;;;;;5.20;2.00;;;22.20;99.90;;;;;;4863665;29;20551;-52
2023/08/14 08:21:29;;;;;;;7.90;2.10;;;22.40;99.90;;;;;;4863840;29;20218;-52
2023/08/14 08:23:55;;;;;;;3.67;1.90;;;22.60;99.90;;;;;;4864006;29;20185;-49
2023/08/14 08:26:22;;;;;;;4.70;1.90;;;22.70;99.90;;;;;;4863577;29;20182;-49
2023/08/14 08:28:47;;;;;;;3.40;1.75;;;22.80;99.90;;;;;;4863497;29;20536;-49
2023/08/14 08:31:14;;;;;;;3.90;1.77;;;22.80;99.90;;;;;;4863855;29;20234;-53
2023/08/14 08:33:39;;;;;;;4.60;2.00;;;22.70;99.90;;;;;;4863444;29;20186;-51
2023/08/14 08:36:05;;;;;;;5.80;1.92;;;22.80;99.90;;;;;;4863481;29;20238;-51
2023/08/14 08:38:31;;;;;;;2.97;1.83;;;23.00;99.90;;;;;;4863592;29;20249;-51
2023/08/14 08:41:01;;;;;;;2.50;1.42;;;23.20;99.90;;;;;;4863138;29;20302;-53
2023/08/14 08:43:27;;;;;;;4.75;2.03;;;23.50;99.90;;;;;;4862880;29;20205;-53
2023/08/14 08:45:58;;;;;;;5.18;1.80;;;23.50;99.90;;;;;;4846720;29;20214;-51
2023/08/14 08:48:24;;;;;;;9.48;1.98;;;23.60;99.90;;;;;;4863292;29;20186;-50
2023/08/14 08:50:50;;;;;;;5.60;1.95;;;23.80;99.90;;;;;;4863586;29;20182;-52
2023/08/14 08:53:20;;;;;;;3.88;1.65;;;23.60;99.90;;;;;;4863184;29;20237;-52
2023/08/14 08:55:46;;;;;;;5.13;1.63;;;23.70;99.90;;;;;;4863178;29;20549;-51
2023/08/14 08:58:15;;;;;;;4.65;1.70;;;23.80;99.90;;;;;;4863098;29;20322;-48
2023/08/14 09:00:43;;;;;;;4.40;1.58;;;23.80;99.90;;;;;;4863019;29;20238;-51
2023/08/14 09:03:09;;;;;;;3.20;1.60;;;23.80;99.90;;;;;;4863200;29;20186;-52
2023/08/14 09:05:36;;;;;;;4.35;1.50;;;23.90;99.90;;;;;;4862880;29;20214;-52
2023/08/14 09:08:02;;;;;;;3.55;1.60;;;23.80;99.90;;;;;;4863437;29;20193;-50
2023/08/14 09:10:28;;;;;;;4.75;1.50;;;24.00;99.90;;;;;;4862965;29;20257;-52
2023/08/14 09:12:57;;;;;;;4.50;1.80;;;24.00;99.90;;;;;;4862825;29;20572;-52
2023/08/14 09:15:24;;;;;;;4.20;1.63;;;24.00;99.90;;;;;;4862748;29;20560;-53
2023/08/14 09:17:54;;;;;;;2.85;1.23;;;24.10;99.90;;;;;;4863215;29;20189;-50
2023/08/14 09:20:20;;;;;;;5.38;1.77;;;24.30;99.90;;;;;;4863135;29;20186;-52
2023/08/14 09:22:46;;;;;;;5.22;1.48;;;24.30;99.90;;;;;;4862774;29;20174;-51
2023/08/14 09:25:13;;;;;;;3.20;1.30;;;24.50;99.90;;;;;;4862557;29;20205;-51
2023/08/14 09:27:39;;;;;;;5.38;1.70;;;24.20;99.90;;;;;;4862571;29;20210;-53
2023/08/14 09:30:06;;;;;;;4.32;1.40;;;24.20;99.90;;;;;;4862439;29;20785;-53
2023/08/14 09:32:32;;;;;;;5.03;1.70;;;24.40;99.90;;;;;;4862534;29;20560;-52
2023/08/14 09:35:02;;;;;;;3.85;1.40;;;24.50;99.90;;;;;;4862507;29;20182;-53
2023/08/14 09:37:28;;;;;;;2.58;1.17;;;24.70;99.90;;;;;;4862356;29;20265;-53
2023/08/14 09:40:16;;;;;;;4.72;1.90;;;24.70;99.90;;;;;;4862391;29;20548;-53
2023/08/14 09:42:45;;;;;;;4.50;1.67;;;24.60;99.90;;;;;;4862199;29;20541;-53
2023/08/14 09:45:13;;;;;;;5.30;1.50;;;24.80;99.90;;;;;;4862383;29;20222;-53
2023/08/14 09:47:41;;;;;;;4.05;1.23;;;24.80;99.90;;;;;;4862363;29;20241;-52
2023/08/14 09:50:08;;;;;;;6.22;1.60;;;25.00;99.90;;;;;;4862425;29;20186;-53
2023/08/14 09:52:34;;;;;;;5.82;1.85;;;24.90;99.90;;;;;;4862098;29;20648;-53
2023/08/14 09:55:01;;;;;;;6.13;1.83;;;25.10;99.90;;;;;;4862015;29;20200;-52
2023/08/14 09:57:27;;;;;;;4.15;1.52;;;25.20;99.90;;;;;;4862200;29;20182;-53
2023/08/14 09:59:53;;;;;;;3.58;1.45;;;25.30;99.90;;;;;;4862150;29;20181;-49
2023/08/14 10:02:23;;;;;;;4.28;1.40;;;25.40;99.90;;;;;;4862071;29;20178;-53
2023/08/14 10:04:50;;;;;;;3.53;1.58;;;25.20;99.90;;;;;;4861367;29;20609;-52
2023/08/14 10:07:17;;;;;;;5.50;1.80;;;25.20;99.90;;;;;;4861978;29;20218;-52
2023/08/14 10:09:50;;;;;;;5.50;1.80;;;25.30;99.90;;;;;;4861817;29;20681;-53
2023/08/14 10:12:22;;;;;;;4.70;1.60;;;25.50;99.90;;;;;;4861950;29;20186;-52
2023/08/14 10:14:57;;;;;;;4.28;1.42;;;25.60;99.90;;;;;;4861882;29;20233;-52
2023/08/14 10:17:30;;;;;;;4.65;1.80;;;25.30;99.90;;;;;;4861874;29;20166;-51
2023/08/14 10:19:56;;;;;;;4.90;1.85;;;25.30;99.90;;;;;;4861775;29;20189;-54
2023/08/14 10:22:24;;;;;;;4.22;1.52;;;25.00;99.90;;;;;;4862034;29;20178;-53
2023/08/14 10:24:52;;;;;;;5.03;1.60;;;25.00;99.90;;;;;;4860891;29;20695;-49
2023/08/14 10:27:19;;;;;;;6.22;1.90;;;25.10;99.90;;;;;;4861805;29;20178;-53
2023/08/14 10:29:45;;;;;;;7.18;2.10;;;25.20;99.90;;;;;;4861667;29;20185;-50
2023/08/14 10:32:11;;;;;;;6.45;1.60;;;25.30;99.90;;;;;;4861351;29;20536;-50
2023/08/14 10:34:37;;;;;;;6.10;2.05;;;25.30;99.90;;;;;;4861373;29;20239;-51
2023/08/14 10:37:03;;;;;;;6.30;1.70;;;25.40;99.90;;;;;;4861468;29;20782;-53
2023/08/14 10:39:35;;;;;;;5.07;1.75;;;25.50;99.90;;;;;;4861441;29;20636;-51
2023/08/14 10:42:05;;;;;;;6.55;2.05;;;25.60;99.90;;;;;;4861410;29;20184;-51
2023/08/14 10:44:33;;;;;;;4.55;1.52;;;25.50;99.90;;;;;;4861416;29;20609;-53
2023/08/14 10:47:07;;;;;;;5.40;1.80;;;25.70;99.90;;;;;;4861212;29;20182;-53
2023/08/14 10:49:51;;;;;;;5.82;1.98;;;25.80;99.90;;;;;;4861154;29;20640;-53
2023/08/14 10:52:20;;;;;;;4.72;1.70;;;26.00;99.90;;;;;;4861287;29;20211;-53
2023/08/14 10:54:51;;;;;;;6.10;1.83;;;26.10;99.90;;;;;;4861160;29;20209;-55
2023/08/14 10:57:17;;;;;;;5.68;1.85;;;26.10;99.90;;;;;;4861344;29;20185;-51
2023/08/14 10:59:53;;;;;;;6.15;1.60;;;26.10;99.90;;;;;;4861182;29;20227;-52
2023/08/14 11:02:19;;;;;;;4.43;1.63;;;26.20;99.90;;;;;;4861332;29;20540;-52
2023/08/14 11:05:10;;;;;;;4.57;1.50;;;26.00;99.90;;;;;;4861192;29;20198;-51
2023/08/14 11:07:36;;;;;;;4.70;1.92;;;26.10;99.90;;;;;;4861099;29;20190;-54
2023/08/14 11:10:05;;;;;;;5.40;1.83;;;26.20;99.90;;;;;;4860976;29;20183;-52
2023/08/14 11:12:34;;;;;;;2.53;1.40;;;26.00;99.90;;;;;;4861146;29;20189;-53
2023/08/14 11:15:00;;;;;;;3.40;1.50;;;26.30;99.90;;;;;;4861053;29;20205;-53
2023/08/14 11:17:27;;;;;;;4.63;1.80;;;26.10;99.90;;;;;;4861043;29;20637;-51
2023/08/14 11:19:52;;;;;;;3.28;1.40;;;26.20;99.90;;;;;;4860976;29;20182;-50
2023/08/14 11:22:22;;;;;;;3.92;1.50;;;26.30;99.90;;;;;;4860969;29;20193;-52
2023/08/14 11:24:47;;;;;;;5.50;1.55;;;26.20;99.90;;;;;;4860727;29;20209;-52
2023/08/14 11:27:13;;;;;;;18.98;2.80;;;26.00;99.90;;;;;;4861021;29;20190;-51
2023/08/14 11:29:39;;;;;;;6.53;1.67;;;26.10;99.90;;;;;;4860945;29;20182;-53
2023/08/14 11:32:05;;;;;;;5.68;1.73;;;26.00;99.90;;;;;;4861024;29;20188;-52
2023/08/14 11:34:33;;;;;;;4.70;1.80;;;26.00;99.90;;;;;;4860911;29;20730;-52
2023/08/14 11:37:04;;;;;;;6.00;2.08;;;26.40;99.90;;;;;;4860384;29;20277;-51
2023/08/14 11:39:29;;;;;;;4.40;1.63;;;26.40;99.90;;;;;;4860964;29;20514;-51
2023/08/14 11:41:55;;;;;;;7.00;2.10;;;26.40;99.90;;;;;;4860870;29;20181;-50
2023/08/14 11:44:21;;;;;;;6.45;1.65;;;26.50;99.90;;;;;;4860930;29;20222;-49
2023/08/14 11:46:50;;;;;;;4.75;1.80;;;26.70;99.90;;;;;;4860795;29;20213;-53
2023/08/14 11:49:16;;;;;;;5.75;1.58;;;26.70;99.90;;;;;;4860684;29;20179;-53
2023/08/14 11:51:42;;;;;;;4.00;1.60;;;26.80;99.90;;;;;;4860544;29;20178;-52
2023/08/14 11:54:09;;;;;;;4.85;1.60;;;26.90;99.90;;;;;;4860725;29;20547;-50
2023/08/14 11:56:37;;;;;;;4.75;1.60;;;27.00;99.90;;;;;;4860787;29;20217;-53
2023/08/14 11:59:04;;;;;;;4.75;1.85;;;26.90;99.90;;;;;;4860575;29;20648;-51
2023/08/14 12:01:41;;;;;;;4.82;1.90;;;26.70;99.90;;;;;;4860562;29;20243;-53
2023/08/14 12:04:06;;;;;;;3.85;1.60;;;26.40;99.90;;;;;;4860430;29;20170;-52
2023/08/14 12:06:33;;;;;;;6.88;2.28;;;26.40;99.90;;;;;;4860685;29;20182;-52
2023/08/14 12:08:59;;;;;;;4.95;1.88;;;26.60;99.90;;;;;;4860602;29;20182;-50
2023/08/14 12:11:25;;;;;;;5.50;1.92;;;26.60;99.90;;;;;;4860834;29;20250;-53
2023/08/14 12:13:51;;;;;;;3.92;1.83;;;26.80;99.90;;;;;;4860682;29;20566;-52
2023/08/14 12:16:19;;;;;;;5.43;1.80;;;26.80;99.90;;;;;;4860506;29;20270;-51
2023/08/14 12:18:46;;;;;;;7.10;1.67;;;26.90;99.90;;;;;;4860405;29;20182;-53
2023/08/14 12:21:12;;;;;;;5.32;1.98;;;26.90;99.90;;;;;;4860560;29;20537;-49
2023/08/14 12:23:52;;;;;;;5.43;1.80;;;26.80;99.90;;;;;;4860480;29;20178;-53
2023/08/14 12:26:18;;;;;;;4.80;1.70;;;26.80;99.90;;;;;;4860477;29;20190;-51
2023/08/14 12:28:44;;;;;;;5.30;1.85;;;27.00;99.90;;;;;;4862981;29;20181;-52
2023/08/14 12:31:13;;;;;;;7.82;2.25;;;26.80;99.90;;;;;;4863523;29;20186;-53
2023/08/14 12:33:41;;;;;;;6.93;1.58;;;26.90;99.90;;;;;;4863335;29;20246;-52
2023/08/14 12:36:08;;;;;;;4.07;1.65;;;27.00;99.90;;;;;;4863556;29;20317;-49
2023/08/14 12:38:34;;;;;;;4.70;1.85;;;26.90;99.90;;;;;;4863532;29;20260;-53
2023/08/14 12:40:59;;;;;;;6.03;1.73;;;26.90;99.90;;;;;;4846780;29;20273;-51
2023/08/14 12:43:25;;;;;;;5.88;1.60;;;26.90;99.90;;;;;;4863273;29;20178;-54
2023/08/14 12:45:51;;;;;;;5.07;1.75;;;26.80;99.90;;;;;;4863223;29;20217;-53
2023/08/14 12:48:16;;;;;;;3.92;1.50;;;26.90;99.90;;;;;;4863583;29;20262;-53